Relevés horaires Bierset (Belgique)


Relevés horaires à Bierset - Mercredi 14 Juin 2023
Heure UTC1 Température [°C] Vent [km/h] Hum. [%] Pres.4 [hPa] Visi. [Km] Nébu. [octa] Préc.5 [mm] Cond.
2m. Res. Ros. Dir.2 Vit. Moy. Raf.3
23:00 16.4 16.4 6.7 ENE 5.6 5.6 14.8 53 1018.2(1.0/3h) 30 1/8 -- --
22:00 19.0 19.0 5.9 E 3.7 5.6 7.4 42 1017.8(1.3/3h) 30 1/8 -- --
21:00 20.2 20.2 6.0 E 5.6 13.0 20.4 40 1017.5(1.5/3h) 30 1/8 -- --
20:00 21.1 21.1 6.0 E 7.4 9.3 20.4 37 1016.9(1.3/3h) 30 1/8 -- --
19:00 22.5 22.5 6.3 E 7.4 13.0 16.7 35 1016.3(0.5/3h) 30 0/8 -- --
18:00 23.3 23.3 6.9 NE 11.1 13.0 20.4 35 1015.7(0.0/3h) 30 0/8 0/12h
--
17:00 23.8 23.8 6.2 NNE 11.1 11.1 14.8 32 1015.4(-0.2/3h) 30 0/8 -- --
16:00 23.8 23.8 4.9 N 5.6 11.1 14.8 29 1015.6(0.0/3h) 30 0/8 -- --
15:00 24.3 24.3 6.4 NE 7.4 13.0 20.4 32 1015.6(0.1/3h) 30 0/8 -- --
14:00 24.5 24.5 5.7 NNE 9.3 13.0 18.5 30 1015.6(0.2/3h) 30 0/8 -- --
13:00 24.5 24.5 4.9 NE 9.3 13.0 20.4 28 1015.6(0.1/3h) 30 0/8 -- --
12:00 24.1 24.1 4.9 NNE 11.1 14.8 20.4 29 1015.7(0.3/3h) 30 1/8 0/6h
--
11:00 23.7 23.7 6.0 ENE 9.3 14.8 20.4 32 1015.8(0.5/3h) 30 1/8 -- --
10:00 23.1 23.1 6.1 NE 14.8 14.8 18.5 33 1015.7(0.9/3h) 30 1/8 -- --
09:00 23.0 23.0 7.7 NE 11.1 11.1 20.4 37 1015.5(0.9/3h) 30 1/8 -- --
08:00 21.2 21.2 8.8 NE 9.3 9.3 13.0 45 1015.4(0.9/3h) 30 1/8 -- --
07:00 21.0 21.0 7.7 NE 3.7 3.7 5.6 42 1015(0.8/3h) 30 1/8 -- --
06:00 19.0 19.0 8.8 N 1.9 5.6 14.8 52 1014.9(0.9/3h) 30 1/8 0/12h
--
05:00 16.4 16.4 8.0 E 1.9 3.7 5.6 58 1014.8(0.8/3h) 30 1/8 -- --
04:00 15.0 15.0 6.9 ENE 3.7 3.7 7.4 58 1014.6(0.6/3h) 30 0/8 -- --
03:00 16.8 16.8 6.9 E 5.6 5.6 14.8 52 1014.1(0.2/3h) 30 0/8 -- --
02:00 16.9 16.9 7.9 ESE 5.6 5.6 14.8 55 1014(0.3/3h) 30 0/8 -- --
01:00 17.7 17.7 7.3 ESE 3.7 5.6 5.6 50 1013.8(0.3/3h) 30 0/8 -- --
00:00 16.8 16.8 7.2 NE 3.7 11.1 20.4 53 1013.9(0.5/3h) 30 0/8 0/6h
0/24h
--

1 Coordinated Universal Time. Actuellement il est 13:00 locale et 11:00 UTC.

2 Le vent souffle depuis la direction indiquée vers la direction oposée.

3 Les rafales max. sont disponible 40 min après l'heure du relevé.

4 Pour les stations d'altitude (plus de 600m) le géopotentiel du niveau le plus proche de la pression obligatoire est indiqué.

5 Les stations disposant d'un diffuseur peuvent indiquer "trace". Cela signifie que des précipitations ont touchés le sol mais que la quantité est inférieure à 0.1 mm.

Récapitulatif de la journée
Température [°C] Vent [km/h] Ensoleillement4 [h] Precipitations totale5 [mm] Pression [Hpa]
Min1 Max.2 Moy.3 Max. Min Max.
14.3 25.0 9.6 20.4 0 h 0 min 0 1013.8 1018.2

1 Température minimale relevée entre 18:00 UTC la veille et 18:00 UTC le jour donné.

2 Température maximale relevée entre 06:00 UTC le jour donné et 06:00 UTC le lendemain.

3 Vent moyen de la journée basé sur les relevés horaires.

4 Ensoleillement en heures relevé entre 06:00 UTC la veille et 06:00 UTC le jour donné.

5 Précipitations totales tombées entre 06:00 UTC la jour donné et 06:00 UTC le lendemain.

Graphiques horaires